sensor_id;sensor_type;location;lat;lon;timestamp;temperature;humidity
67192;HTU21D;54120;53.504;49.426;2023-05-07T00:02:13;5.63;74.76
67192;HTU21D;54120;53.504;49.426;2023-05-07T00:04:40;5.61;74.72
67192;HTU21D;54120;53.504;49.426;2023-05-07T00:07:08;5.56;74.59
67192;HTU21D;54120;53.504;49.426;2023-05-07T00:09:36;5.53;74.81
67192;HTU21D;54120;53.504;49.426;2023-05-07T00:12:03;5.48;74.06
67192;HTU21D;54120;53.504;49.426;2023-05-07T00:14:31;5.40;74.59
67192;HTU21D;54120;53.504;49.426;2023-05-07T00:19:58;5.19;75.12
67192;HTU21D;54120;53.504;49.426;2023-05-07T00:22:33;5.19;75.47
67192;HTU21D;54120;53.504;49.426;2023-05-07T00:25:08;5.12;74.18
67192;HTU21D;54120;53.504;49.426;2023-05-07T00:27:37;5.04;74.53
67192;HTU21D;54120;53.504;49.426;2023-05-07T00:30:08;4.97;74.98
67192;HTU21D;54120;53.504;49.426;2023-05-07T00:32:40;4.93;75.22
67192;HTU21D;54120;53.504;49.426;2023-05-07T00:35:15;4.91;75.58
67192;HTU21D;54120;53.504;49.426;2023-05-07T00:37:48;4.86;75.62
67192;HTU21D;54120;53.504;49.426;2023-05-07T00:40:18;4.81;76.05
67192;HTU21D;54120;53.504;49.426;2023-05-07T00:42:51;4.72;75.49
67192;HTU21D;54120;53.504;49.426;2023-05-07T00:45:30;4.66;75.10
67192;HTU21D;54120;53.504;49.426;2023-05-07T00:47:59;4.61;75.57
67192;HTU21D;54120;53.504;49.426;2023-05-07T00:50:28;4.57;75.48
67192;HTU21D;54120;53.504;49.426;2023-05-07T00:56:23;4.52;75.74
67192;HTU21D;54120;53.504;49.426;2023-05-07T00:58:56;4.49;75.92
67192;HTU21D;54120;53.504;49.426;2023-05-07T01:01:31;4.56;75.23
67192;HTU21D;54120;53.504;49.426;2023-05-07T01:03:58;4.54;75.04
67192;HTU21D;54120;53.504;49.426;2023-05-07T01:06:25;4.61;74.96
67192;HTU21D;54120;53.504;49.426;2023-05-07T01:08:53;4.65;74.47
67192;HTU21D;54120;53.504;49.426;2023-05-07T01:17:43;4.69;74.36
67192;HTU21D;54120;53.504;49.426;2023-05-07T01:23:43;4.67;75.28
67192;HTU21D;54120;53.504;49.426;2023-05-07T01:26:16;4.69;75.15
67192;HTU21D;54120;53.504;49.426;2023-05-07T01:28:48;4.76;75.20
67192;HTU21D;54120;53.504;49.426;2023-05-07T01:31:39;4.77;75.26
67192;HTU21D;54120;53.504;49.426;2023-05-07T01:37:32;5.17;74.80
67192;HTU21D;54120;53.504;49.426;2023-05-07T01:40:03;6.21;70.71
67192;HTU21D;54120;53.504;49.426;2023-05-07T01:42:50;7.97;63.92
67192;HTU21D;54120;53.504;49.426;2023-05-07T01:51:52;9.27;59.64
67192;HTU21D;54120;53.504;49.426;2023-05-07T01:54:25;11.19;52.46
67192;HTU21D;54120;53.504;49.426;2023-05-07T01:56:54;12.40;48.33
67192;HTU21D;54120;53.504;49.426;2023-05-07T02:02:08;14.24;43.77
67192;HTU21D;54120;53.504;49.426;2023-05-07T02:04:34;14.43;42.23
67192;HTU21D;54120;53.504;49.426;2023-05-07T02:07:00;15.23;40.74
67192;HTU21D;54120;53.504;49.426;2023-05-07T02:09:26;15.52;39.70
67192;HTU21D;54120;53.504;49.426;2023-05-07T02:11:52;15.84;38.94
67192;HTU21D;54120;53.504;49.426;2023-05-07T02:14:18;16.00;38.19
67192;HTU21D;54120;53.504;49.426;2023-05-07T02:16:45;16.50;37.48
67192;HTU21D;54120;53.504;49.426;2023-05-07T02:19:12;16.96;36.14
67192;HTU21D;54120;53.504;49.426;2023-05-07T02:21:38;17.74;34.62
67192;HTU21D;54120;53.504;49.426;2023-05-07T02:24:04;17.91;34.22
67192;HTU21D;54120;53.504;49.426;2023-05-07T02:26:30;18.19;33.42
67192;HTU21D;54120;53.504;49.426;2023-05-07T02:28:56;18.50;33.18
67192;HTU21D;54120;53.504;49.426;2023-05-07T02:31:26;18.74;32.70
67192;HTU21D;54120;53.504;49.426;2023-05-07T02:33:52;18.98;31.19
67192;HTU21D;54120;53.504;49.426;2023-05-07T02:36:18;19.13;32.11
67192;HTU21D;54120;53.504;49.426;2023-05-07T02:38:44;19.18;30.77
67192;HTU21D;54120;53.504;49.426;2023-05-07T02:41:10;19.12;31.67
67192;HTU21D;54120;53.504;49.426;2023-05-07T02:43:36;19.40;30.79
67192;HTU21D;54120;53.504;49.426;2023-05-07T02:46:04;19.82;29.48
67192;HTU21D;54120;53.504;49.426;2023-05-07T02:48:30;19.39;30.55
67192;HTU21D;54120;53.504;49.426;2023-05-07T02:50:57;18.81;31.57
67192;HTU21D;54120;53.504;49.426;2023-05-07T02:53:23;18.67;32.01
67192;HTU21D;54120;53.504;49.426;2023-05-07T02:55:59;19.05;30.47
67192;HTU21D;54120;53.504;49.426;2023-05-07T02:58:25;18.92;31.52
67192;HTU21D;54120;53.504;49.426;2023-05-07T03:00:52;20.39;29.17
67192;HTU21D;54120;53.504;49.426;2023-05-07T03:03:20;21.72;26.44
67192;HTU21D;54120;53.504;49.426;2023-05-07T03:05:46;21.38;26.42
67192;HTU21D;54120;53.504;49.426;2023-05-07T03:08:12;22.03;25.32
67192;HTU21D;54120;53.504;49.426;2023-05-07T03:10:38;22.38;25.65
67192;HTU21D;54120;53.504;49.426;2023-05-07T03:13:05;22.96;24.01
67192;HTU21D;54120;53.504;49.426;2023-05-07T03:15:31;22.16;24.63
67192;HTU21D;54120;53.504;49.426;2023-05-07T03:17:57;21.61;25.78
67192;HTU21D;54120;53.504;49.426;2023-05-07T03:20:23;22.24;25.13
67192;HTU21D;54120;53.504;49.426;2023-05-07T03:22:49;22.17;24.98
67192;HTU21D;54120;53.504;49.426;2023-05-07T03:25:15;22.85;23.59
67192;HTU21D;54120;53.504;49.426;2023-05-07T03:27:41;21.66;25.66
67192;HTU21D;54120;53.504;49.426;2023-05-07T03:30:08;20.84;27.22
67192;HTU21D;54120;53.504;49.426;2023-05-07T03:32:34;21.44;25.98
67192;HTU21D;54120;53.504;49.426;2023-05-07T03:35:01;22.49;24.25
67192;HTU21D;54120;53.504;49.426;2023-05-07T03:37:28;22.90;23.88
67192;HTU21D;54120;53.504;49.426;2023-05-07T03:39:54;23.29;21.92
67192;HTU21D;54120;53.504;49.426;2023-05-07T03:42:20;22.18;23.00
67192;HTU21D;54120;53.504;49.426;2023-05-07T03:44:46;22.63;22.49
67192;HTU21D;54120;53.504;49.426;2023-05-07T03:47:12;22.27;23.18
67192;HTU21D;54120;53.504;49.426;2023-05-07T03:49:39;23.29;20.89
67192;HTU21D;54120;53.504;49.426;2023-05-07T03:52:06;21.40;24.86
67192;HTU21D;54120;53.504;49.426;2023-05-07T03:54:32;20.81;25.46
67192;HTU21D;54120;53.504;49.426;2023-05-07T03:56:58;21.27;21.92
67192;HTU21D;54120;53.504;49.426;2023-05-07T03:59:24;22.41;23.30
67192;HTU21D;54120;53.504;49.426;2023-05-07T04:01:51;23.25;20.31
67192;HTU21D;54120;53.504;49.426;2023-05-07T04:04:17;22.97;21.11
67192;HTU21D;54120;53.504;49.426;2023-05-07T04:06:43;24.12;20.36
67192;HTU21D;54120;53.504;49.426;2023-05-07T04:09:09;23.90;20.53
67192;HTU21D;54120;53.504;49.426;2023-05-07T04:11:35;22.81;21.44
67192;HTU21D;54120;53.504;49.426;2023-05-07T04:14:01;21.27;24.49
67192;HTU21D;54120;53.504;49.426;2023-05-07T04:16:27;23.27;21.41
67192;HTU21D;54120;53.504;49.426;2023-05-07T04:18:54;24.28;19.61
67192;HTU21D;54120;53.504;49.426;2023-05-07T04:21:23;24.21;17.92
67192;HTU21D;54120;53.504;49.426;2023-05-07T04:23:49;23.76;17.25
67192;HTU21D;54120;53.504;49.426;2023-05-07T04:26:15;23.65;18.57
67192;HTU21D;54120;53.504;49.426;2023-05-07T04:28:42;23.85;17.64
67192;HTU21D;54120;53.504;49.426;2023-05-07T04:31:08;24.38;17.36
67192;HTU21D;54120;53.504;49.426;2023-05-07T04:33:34;23.64;17.03
67192;HTU21D;54120;53.504;49.426;2023-05-07T04:36:03;22.47;19.34
67192;HTU21D;54120;53.504;49.426;2023-05-07T04:38:30;22.97;19.88
67192;HTU21D;54120;53.504;49.426;2023-05-07T04:41:02;23.96;18.77
67192;HTU21D;54120;53.504;49.426;2023-05-07T04:43:28;24.30;19.40
67192;HTU21D;54120;53.504;49.426;2023-05-07T04:45:54;25.21;18.48
67192;HTU21D;54120;53.504;49.426;2023-05-07T04:48:20;25.54;17.22
67192;HTU21D;54120;53.504;49.426;2023-05-07T04:50:50;26.34;15.84
67192;HTU21D;54120;53.504;49.426;2023-05-07T04:53:17;24.30;18.87
67192;HTU21D;54120;53.504;49.426;2023-05-07T04:55:43;23.85;19.88
67192;HTU21D;54120;53.504;49.426;2023-05-07T04:58:11;20.44;26.30
67192;HTU21D;54120;53.504;49.426;2023-05-07T05:00:38;17.43;31.19
67192;HTU21D;54120;53.504;49.426;2023-05-07T05:03:06;15.78;34.09
67192;HTU21D;54120;53.504;49.426;2023-05-07T05:05:32;17.16;29.83
67192;HTU21D;54120;53.504;49.426;2023-05-07T05:07:59;21.17;22.94
67192;HTU21D;54120;53.504;49.426;2023-05-07T05:10:25;22.26;20.96
67192;HTU21D;54120;53.504;49.426;2023-05-07T05:12:51;22.48;18.11
67192;HTU21D;54120;53.504;49.426;2023-05-07T05:15:17;21.54;20.45
67192;HTU21D;54120;53.504;49.426;2023-05-07T05:17:43;22.66;19.50
67192;HTU21D;54120;53.504;49.426;2023-05-07T05:20:10;23.69;17.08
67192;HTU21D;54120;53.504;49.426;2023-05-07T05:22:37;23.86;17.50
67192;HTU21D;54120;53.504;49.426;2023-05-07T05:25:03;21.77;19.52
67192;HTU21D;54120;53.504;49.426;2023-05-07T05:27:30;19.77;23.21
67192;HTU21D;54120;53.504;49.426;2023-05-07T05:29:56;23.20;19.24
67192;HTU21D;54120;53.504;49.426;2023-05-07T05:32:21;22.97;18.20
67192;HTU21D;54120;53.504;49.426;2023-05-07T05:34:48;21.09;21.72
67192;HTU21D;54120;53.504;49.426;2023-05-07T05:37:14;22.56;19.92
67192;HTU21D;54120;53.504;49.426;2023-05-07T05:39:40;22.44;19.68
67192;HTU21D;54120;53.504;49.426;2023-05-07T05:42:06;22.73;18.82
67192;HTU21D;54120;53.504;49.426;2023-05-07T05:44:32;23.55;17.57
67192;HTU21D;54120;53.504;49.426;2023-05-07T05:46:58;24.95;15.93
67192;HTU21D;54120;53.504;49.426;2023-05-07T05:49:25;22.90;18.33
67192;HTU21D;54120;53.504;49.426;2023-05-07T05:51:51;22.63;19.83
67192;HTU21D;54120;53.504;49.426;2023-05-07T05:54:17;21.76;20.41
67192;HTU21D;54120;53.504;49.426;2023-05-07T05:56:43;20.03;23.01
67192;HTU21D;54120;53.504;49.426;2023-05-07T05:59:10;22.08;20.09
67192;HTU21D;54120;53.504;49.426;2023-05-07T06:01:36;22.08;19.23
67192;HTU21D;54120;53.504;49.426;2023-05-07T06:04:02;19.46;23.08
67192;HTU21D;54120;53.504;49.426;2023-05-07T06:06:28;16.98;26.96
67192;HTU21D;54120;53.504;49.426;2023-05-07T06:08:54;15.93;30.22
67192;HTU21D;54120;53.504;49.426;2023-05-07T06:11:20;19.69;23.61
67192;HTU21D;54120;53.504;49.426;2023-05-07T06:13:47;21.05;18.93
67192;HTU21D;54120;53.504;49.426;2023-05-07T06:16:13;20.20;20.69
67192;HTU21D;54120;53.504;49.426;2023-05-07T06:18:39;21.82;19.22
67192;HTU21D;54120;53.504;49.426;2023-05-07T06:23:43;21.78;18.42
67192;HTU21D;54120;53.504;49.426;2023-05-07T06:26:11;19.55;21.10
67192;HTU21D;54120;53.504;49.426;2023-05-07T06:37:28;20.89;19.76
67192;HTU21D;54120;53.504;49.426;2023-05-07T06:39:54;18.20;23.66
67192;HTU21D;54120;53.504;49.426;2023-05-07T06:42:20;14.93;29.24
67192;HTU21D;54120;53.504;49.426;2023-05-07T06:44:46;14.91;30.15
67192;HTU21D;54120;53.504;49.426;2023-05-07T06:47:12;17.85;24.62
67192;HTU21D;54120;53.504;49.426;2023-05-07T06:49:38;20.69;20.39
67192;HTU21D;54120;53.504;49.426;2023-05-07T06:52:05;20.16;20.13
67192;HTU21D;54120;53.504;49.426;2023-05-07T06:54:31;19.74;20.85
67192;HTU21D;54120;53.504;49.426;2023-05-07T06:56:57;18.67;21.44
67192;HTU21D;54120;53.504;49.426;2023-05-07T06:59:23;19.00;19.70
67192;HTU21D;54120;53.504;49.426;2023-05-07T07:01:49;20.70;17.92
67192;HTU21D;54120;53.504;49.426;2023-05-07T07:04:15;21.02;16.49
67192;HTU21D;54120;53.504;49.426;2023-05-07T07:06:42;19.06;18.36
67192;HTU21D;54120;53.504;49.426;2023-05-07T07:09:08;19.84;15.26
67192;HTU21D;54120;53.504;49.426;2023-05-07T07:11:34;19.98;15.32
67192;HTU21D;54120;53.504;49.426;2023-05-07T07:14:00;21.34;12.89
67192;HTU21D;54120;53.504;49.426;2023-05-07T07:16:26;22.31;12.99
67192;HTU21D;54120;53.504;49.426;2023-05-07T07:18:53;21.64;12.52
67192;HTU21D;54120;53.504;49.426;2023-05-07T07:21:19;21.03;14.54
67192;HTU21D;54120;53.504;49.426;2023-05-07T07:23:45;20.74;15.84
67192;HTU21D;54120;53.504;49.426;2023-05-07T07:26:11;19.72;17.49
67192;HTU21D;54120;53.504;49.426;2023-05-07T07:28:47;18.23;19.99
67192;HTU21D;54120;53.504;49.426;2023-05-07T07:31:13;17.43;21.85
67192;HTU21D;54120;53.504;49.426;2023-05-07T07:33:39;16.21;23.53
67192;HTU21D;54120;53.504;49.426;2023-05-07T07:36:06;17.70;21.02
67192;HTU21D;54120;53.504;49.426;2023-05-07T07:38:32;15.57;24.66
67192;HTU21D;54120;53.504;49.426;2023-05-07T07:40:59;15.01;25.14
67192;HTU21D;54120;53.504;49.426;2023-05-07T07:43:26;16.34;23.10
67192;HTU21D;54120;53.504;49.426;2023-05-07T07:45:52;14.50;25.07
67192;HTU21D;54120;53.504;49.426;2023-05-07T07:48:18;12.92;28.45
67192;HTU21D;54120;53.504;49.426;2023-05-07T07:50:49;11.87;30.81
67192;HTU21D;54120;53.504;49.426;2023-05-07T07:53:15;11.77;31.41
67192;HTU21D;54120;53.504;49.426;2023-05-07T07:55:42;11.42;32.02
67192;HTU21D;54120;53.504;49.426;2023-05-07T08:03:58;11.52;31.48
67192;HTU21D;54120;53.504;49.426;2023-05-07T08:12:50;12.42;30.88
67192;HTU21D;54120;53.504;49.426;2023-05-07T08:15:41;12.12;31.45
67192;HTU21D;54120;53.504;49.426;2023-05-07T08:18:07;11.85;32.54
67192;HTU21D;54120;53.504;49.426;2023-05-07T08:20:34;12.11;31.80
67192;HTU21D;54120;53.504;49.426;2023-05-07T08:23:05;11.91;33.12
67192;HTU21D;54120;53.504;49.426;2023-05-07T08:25:33;12.34;31.56
67192;HTU21D;54120;53.504;49.426;2023-05-07T08:28:00;12.93;30.24
67192;HTU21D;54120;53.504;49.426;2023-05-07T08:30:26;12.92;30.49
67192;HTU21D;54120;53.504;49.426;2023-05-07T08:32:52;12.97;30.40
67192;HTU21D;54120;53.504;49.426;2023-05-07T08:35:18;13.32;31.28
67192;HTU21D;54120;53.504;49.426;2023-05-07T08:37:44;13.11;29.35
67192;HTU21D;54120;53.504;49.426;2023-05-07T08:40:10;12.44;30.83
67192;HTU21D;54120;53.504;49.426;2023-05-07T08:42:36;12.34;32.03
67192;HTU21D;54120;53.504;49.426;2023-05-07T08:45:04;12.16;32.16
67192;HTU21D;54120;53.504;49.426;2023-05-07T08:47:50;12.44;30.85
67192;HTU21D;54120;53.504;49.426;2023-05-07T08:50:17;12.71;31.23
67192;HTU21D;54120;53.504;49.426;2023-05-07T08:52:47;13.19;31.06
67192;HTU21D;54120;53.504;49.426;2023-05-07T08:55:13;13.85;30.48
67192;HTU21D;54120;53.504;49.426;2023-05-07T08:57:39;13.34;28.60
67192;HTU21D;54120;53.504;49.426;2023-05-07T09:00:07;12.94;30.96
67192;HTU21D;54120;53.504;49.426;2023-05-07T09:02:35;13.52;30.38
67192;HTU21D;54120;53.504;49.426;2023-05-07T09:05:02;13.64;29.16
67192;HTU21D;54120;53.504;49.426;2023-05-07T09:07:30;13.36;30.61
67192;HTU21D;54120;53.504;49.426;2023-05-07T09:09:56;13.17;29.85
67192;HTU21D;54120;53.504;49.426;2023-05-07T09:12:23;12.75;29.47
67192;HTU21D;54120;53.504;49.426;2023-05-07T09:14:49;12.58;30.19
67192;HTU21D;54120;53.504;49.426;2023-05-07T09:17:16;12.59;30.47
67192;HTU21D;54120;53.504;49.426;2023-05-07T09:19:46;12.84;30.67
67192;HTU21D;54120;53.504;49.426;2023-05-07T09:22:12;12.84;30.48
67192;HTU21D;54120;53.504;49.426;2023-05-07T09:24:38;12.72;30.99
67192;HTU21D;54120;53.504;49.426;2023-05-07T09:27:05;12.64;31.48
67192;HTU21D;54120;53.504;49.426;2023-05-07T09:29:31;12.35;31.87
67192;HTU21D;54120;53.504;49.426;2023-05-07T09:32:05;12.38;31.69
67192;HTU21D;54120;53.504;49.426;2023-05-07T09:34:32;12.11;32.28
67192;HTU21D;54120;53.504;49.426;2023-05-07T09:37:00;12.03;31.93
67192;HTU21D;54120;53.504;49.426;2023-05-07T09:39:26;12.70;32.03
67192;HTU21D;54120;53.504;49.426;2023-05-07T09:42:04;13.15;32.39
67192;HTU21D;54120;53.504;49.426;2023-05-07T09:44:32;13.10;31.61
67192;HTU21D;54120;53.504;49.426;2023-05-07T09:46:59;12.90;31.21
67192;HTU21D;54120;53.504;49.426;2023-05-07T09:49:29;12.73;31.83
67192;HTU21D;54120;53.504;49.426;2023-05-07T09:52:00;12.97;31.37
67192;HTU21D;54120;53.504;49.426;2023-05-07T09:54:27;12.61;31.69
67192;HTU21D;54120;53.504;49.426;2023-05-07T09:57:05;11.87;33.51
67192;HTU21D;54120;53.504;49.426;2023-05-07T09:59:32;12.06;32.86
67192;HTU21D;54120;53.504;49.426;2023-05-07T10:02:01;12.82;32.38
67192;HTU21D;54120;53.504;49.426;2023-05-07T10:04:29;12.62;30.13
67192;HTU21D;54120;53.504;49.426;2023-05-07T10:06:56;12.33;29.80
67192;HTU21D;54120;53.504;49.426;2023-05-07T10:09:23;12.41;30.04
67192;HTU21D;54120;53.504;49.426;2023-05-07T10:11:52;12.90;28.63
67192;HTU21D;54120;53.504;49.426;2023-05-07T10:14:20;13.03;29.07
67192;HTU21D;54120;53.504;49.426;2023-05-07T10:16:48;12.21;29.87
67192;HTU21D;54120;53.504;49.426;2023-05-07T10:19:15;11.92;32.01
67192;HTU21D;54120;53.504;49.426;2023-05-07T10:21:51;11.79;30.90
67192;HTU21D;54120;53.504;49.426;2023-05-07T10:24:22;11.55;31.34
67192;HTU21D;54120;53.504;49.426;2023-05-07T10:26:51;11.47;33.38
67192;HTU21D;54120;53.504;49.426;2023-05-07T10:29:25;11.78;30.51
67192;HTU21D;54120;53.504;49.426;2023-05-07T10:32:11;11.73;30.89
67192;HTU21D;54120;53.504;49.426;2023-05-07T10:34:43;12.10;31.44
67192;HTU21D;54120;53.504;49.426;2023-05-07T10:37:10;12.44;30.21
67192;HTU21D;54120;53.504;49.426;2023-05-07T10:39:36;12.43;30.32
67192;HTU21D;54120;53.504;49.426;2023-05-07T10:42:13;12.73;30.28
67192;HTU21D;54120;53.504;49.426;2023-05-07T10:44:39;12.26;30.57
67192;HTU21D;54120;53.504;49.426;2023-05-07T10:47:13;12.01;31.16
67192;HTU21D;54120;53.504;49.426;2023-05-07T10:52:18;11.71;30.97
67192;HTU21D;54120;53.504;49.426;2023-05-07T10:54:46;12.50;29.48
67192;HTU21D;54120;53.504;49.426;2023-05-07T10:59:56;13.45;28.45
67192;HTU21D;54120;53.504;49.426;2023-05-07T11:02:22;12.76;29.13
67192;HTU21D;54120;53.504;49.426;2023-05-07T11:05:22;12.41;30.09
67192;HTU21D;54120;53.504;49.426;2023-05-07T11:07:59;12.27;29.72
67192;HTU21D;54120;53.504;49.426;2023-05-07T11:10:51;11.89;30.77
67192;HTU21D;54120;53.504;49.426;2023-05-07T11:13:17;11.93;30.24
67192;HTU21D;54120;53.504;49.426;2023-05-07T11:15:48;12.18;30.46
67192;HTU21D;54120;53.504;49.426;2023-05-07T11:18:16;11.94;30.75
67192;HTU21D;54120;53.504;49.426;2023-05-07T11:28:42;11.49;31.74
67192;HTU21D;54120;53.504;49.426;2023-05-07T11:31:24;12.00;29.77
67192;HTU21D;54120;53.504;49.426;2023-05-07T11:33:52;12.55;27.95
67192;HTU21D;54120;53.504;49.426;2023-05-07T11:39:00;12.58;28.90
67192;HTU21D;54120;53.504;49.426;2023-05-07T11:41:36;12.44;28.93
67192;HTU21D;54120;53.504;49.426;2023-05-07T11:47:08;11.98;29.49
67192;HTU21D;54120;53.504;49.426;2023-05-07T11:52:13;11.98;30.63
67192;HTU21D;54120;53.504;49.426;2023-05-07T11:54:39;12.37;30.10
67192;HTU21D;54120;53.504;49.426;2023-05-07T11:57:05;12.43;29.92
67192;HTU21D;54120;53.504;49.426;2023-05-07T11:59:42;12.61;29.40
67192;HTU21D;54120;53.504;49.426;2023-05-07T12:02:15;12.77;29.69
67192;HTU21D;54120;53.504;49.426;2023-05-07T12:04:42;12.67;28.25
67192;HTU21D;54120;53.504;49.426;2023-05-07T12:07:14;12.40;28.68
67192;HTU21D;54120;53.504;49.426;2023-05-07T12:09:41;12.02;29.56
67192;HTU21D;54120;53.504;49.426;2023-05-07T12:14:45;12.84;27.99
67192;HTU21D;54120;53.504;49.426;2023-05-07T12:17:43;13.04;29.22
67192;HTU21D;54120;53.504;49.426;2023-05-07T12:20:11;12.96;27.91
67192;HTU21D;54120;53.504;49.426;2023-05-07T12:22:46;12.82;28.16
67192;HTU21D;54120;53.504;49.426;2023-05-07T12:25:20;12.64;28.29
67192;HTU21D;54120;53.504;49.426;2023-05-07T12:28:12;12.66;28.41
67192;HTU21D;54120;53.504;49.426;2023-05-07T12:31:00;12.63;29.79
67192;HTU21D;54120;53.504;49.426;2023-05-07T12:33:34;12.20;30.29
67192;HTU21D;54120;53.504;49.426;2023-05-07T12:36:37;11.93;30.96
67192;HTU21D;54120;53.504;49.426;2023-05-07T12:39:08;12.00;30.09
67192;HTU21D;54120;53.504;49.426;2023-05-07T12:41:57;11.92;29.27
67192;HTU21D;54120;53.504;49.426;2023-05-07T12:44:34;11.92;29.23
67192;HTU21D;54120;53.504;49.426;2023-05-07T12:47:02;11.79;29.90
67192;HTU21D;54120;53.504;49.426;2023-05-07T12:49:36;12.22;29.79
67192;HTU21D;54120;53.504;49.426;2023-05-07T12:55:57;13.02;28.50
67192;HTU21D;54120;53.504;49.426;2023-05-07T12:58:30;12.89;29.09
67192;HTU21D;54120;53.504;49.426;2023-05-07T13:04:30;11.93;30.96
67192;HTU21D;54120;53.504;49.426;2023-05-07T13:13:54;11.70;31.06
67192;HTU21D;54120;53.504;49.426;2023-05-07T13:16:21;11.63;31.25
67192;HTU21D;54120;53.504;49.426;2023-05-07T13:21:42;11.58;32.85
67192;HTU21D;54120;53.504;49.426;2023-05-07T13:24:08;11.69;30.66
67192;HTU21D;54120;53.504;49.426;2023-05-07T13:26:35;11.81;31.09
67192;HTU21D;54120;53.504;49.426;2023-05-07T13:29:01;11.67;31.38
67192;HTU21D;54120;53.504;49.426;2023-05-07T13:31:27;12.12;31.32
67192;HTU21D;54120;53.504;49.426;2023-05-07T13:33:53;12.15;30.30
67192;HTU21D;54120;53.504;49.426;2023-05-07T13:39:21;11.74;31.08
67192;HTU21D;54120;53.504;49.426;2023-05-07T13:41:54;11.46;31.74
67192;HTU21D;54120;53.504;49.426;2023-05-07T13:44:22;11.54;33.27
67192;HTU21D;54120;53.504;49.426;2023-05-07T13:46:49;11.49;31.73
67192;HTU21D;54120;53.504;49.426;2023-05-07T13:49:15;11.56;32.10
67192;HTU21D;54120;53.504;49.426;2023-05-07T13:51:44;11.27;32.99
67192;HTU21D;54120;53.504;49.426;2023-05-07T13:54:18;11.23;32.82
67192;HTU21D;54120;53.504;49.426;2023-05-07T13:56:45;11.44;32.58
67192;HTU21D;54120;53.504;49.426;2023-05-07T14:02:08;10.95;32.27
67192;HTU21D;54120;53.504;49.426;2023-05-07T14:04:37;10.89;33.61
67192;HTU21D;54120;53.504;49.426;2023-05-07T14:07:04;10.90;32.03
67192;HTU21D;54120;53.504;49.426;2023-05-07T14:09:32;11.25;32.57
67192;HTU21D;54120;53.504;49.426;2023-05-07T14:12:19;11.58;31.77
67192;HTU21D;54120;53.504;49.426;2023-05-07T14:14:46;11.60;30.80
67192;HTU21D;54120;53.504;49.426;2023-05-07T14:20:42;11.25;32.12
67192;HTU21D;54120;53.504;49.426;2023-05-07T14:23:19;11.11;32.15
67192;HTU21D;54120;53.504;49.426;2023-05-07T14:25:57;11.08;32.81
67192;HTU21D;54120;53.504;49.426;2023-05-07T14:28:27;10.94;33.11
67192;HTU21D;54120;53.504;49.426;2023-05-07T14:31:00;10.82;33.46
67192;HTU21D;54120;53.504;49.426;2023-05-07T14:33:34;10.67;34.07
67192;HTU21D;54120;53.504;49.426;2023-05-07T14:36:07;10.72;33.21
67192;HTU21D;54120;53.504;49.426;2023-05-07T14:45:28;10.78;33.46
67192;HTU21D;54120;53.504;49.426;2023-05-07T14:47:56;10.67;33.36
67192;HTU21D;54120;53.504;49.426;2023-05-07T14:50:26;10.58;33.41
67192;HTU21D;54120;53.504;49.426;2023-05-07T14:53:15;10.44;34.47
67192;HTU21D;54120;53.504;49.426;2023-05-07T14:55:47;10.48;34.41
67192;HTU21D;54120;53.504;49.426;2023-05-07T14:58:18;10.39;34.18
67192;HTU21D;54120;53.504;49.426;2023-05-07T15:00:47;10.38;34.19
67192;HTU21D;54120;53.504;49.426;2023-05-07T15:07:01;10.35;34.63
67192;HTU21D;54120;53.504;49.426;2023-05-07T15:09:30;10.31;34.59
67192;HTU21D;54120;53.504;49.426;2023-05-07T15:11:56;10.21;34.10
67192;HTU21D;54120;53.504;49.426;2023-05-07T15:17:42;10.03;34.86
67192;HTU21D;54120;53.504;49.426;2023-05-07T15:23:16;9.93;35.40
67192;HTU21D;54120;53.504;49.426;2023-05-07T15:25:43;9.86;34.77
67192;HTU21D;54120;53.504;49.426;2023-05-07T15:31:31;9.69;35.37
67192;HTU21D;54120;53.504;49.426;2023-05-07T15:34:00;9.61;35.55
67192;HTU21D;54120;53.504;49.426;2023-05-07T15:36:27;9.55;35.90
67192;HTU21D;54120;53.504;49.426;2023-05-07T15:41:59;9.46;35.73
67192;HTU21D;54120;53.504;49.426;2023-05-07T15:44:35;9.52;36.95
67192;HTU21D;54120;53.504;49.426;2023-05-07T15:47:10;9.47;35.41
67192;HTU21D;54120;53.504;49.426;2023-05-07T15:49:42;9.38;35.05
67192;HTU21D;54120;53.504;49.426;2023-05-07T15:52:12;9.34;34.89
67192;HTU21D;54120;53.504;49.426;2023-05-07T15:55:14;9.25;35.11
67192;HTU21D;54120;53.504;49.426;2023-05-07T15:57:51;9.24;35.42
67192;HTU21D;54120;53.504;49.426;2023-05-07T16:03:43;9.30;36.63
67192;HTU21D;54120;53.504;49.426;2023-05-07T16:09:32;9.08;37.46
67192;HTU21D;54120;53.504;49.426;2023-05-07T16:12:05;8.93;37.50
67192;HTU21D;54120;53.504;49.426;2023-05-07T16:14:32;8.85;38.46
67192;HTU21D;54120;53.504;49.426;2023-05-07T16:17:00;8.77;38.29
67192;HTU21D;54120;53.504;49.426;2023-05-07T16:19:32;8.57;38.91
67192;HTU21D;54120;53.504;49.426;2023-05-07T16:22:05;8.41;39.59
67192;HTU21D;54120;53.504;49.426;2023-05-07T16:27:59;8.18;40.04
67192;HTU21D;54120;53.504;49.426;2023-05-07T16:30:33;8.16;40.23
67192;HTU21D;54120;53.504;49.426;2023-05-07T16:39:29;7.85;41.34
67192;HTU21D;54120;53.504;49.426;2023-05-07T16:41:57;7.76;41.60
67192;HTU21D;54120;53.504;49.426;2023-05-07T16:47:44;7.63;42.23
67192;HTU21D;54120;53.504;49.426;2023-05-07T16:50:11;7.58;42.11
67192;HTU21D;54120;53.504;49.426;2023-05-07T16:55:41;7.55;42.32
67192;HTU21D;54120;53.504;49.426;2023-05-07T16:58:10;7.48;42.63
67192;HTU21D;54120;53.504;49.426;2023-05-07T17:00:45;7.44;42.48
67192;HTU21D;54120;53.504;49.426;2023-05-07T17:09:44;7.39;43.08
67192;HTU21D;54120;53.504;49.426;2023-05-07T17:12:32;7.38;43.19
67192;HTU21D;54120;53.504;49.426;2023-05-07T17:15:04;7.31;43.74
67192;HTU21D;54120;53.504;49.426;2023-05-07T17:23:59;7.15;43.85
67192;HTU21D;54120;53.504;49.426;2023-05-07T17:26:34;7.14;43.90
67192;HTU21D;54120;53.504;49.426;2023-05-07T17:32:23;7.05;44.79
67192;HTU21D;54120;53.504;49.426;2023-05-07T17:34:54;6.99;44.49
67192;HTU21D;54120;53.504;49.426;2023-05-07T17:43:51;6.84;45.73
67192;HTU21D;54120;53.504;49.426;2023-05-07T17:46:25;6.79;45.42
67192;HTU21D;54120;53.504;49.426;2023-05-07T17:48:53;6.73;45.91
67192;HTU21D;54120;53.504;49.426;2023-05-07T17:51:27;6.66;47.09
67192;HTU21D;54120;53.504;49.426;2023-05-07T17:57:09;6.68;46.38
67192;HTU21D;54120;53.504;49.426;2023-05-07T17:59:51;6.67;47.79
67192;HTU21D;54120;53.504;49.426;2023-05-07T18:02:37;6.71;47.18
67192;HTU21D;54120;53.504;49.426;2023-05-07T18:08:38;6.55;46.06
67192;HTU21D;54120;53.504;49.426;2023-05-07T18:11:07;6.58;46.31
67192;HTU21D;54120;53.504;49.426;2023-05-07T18:13:37;6.56;46.19
67192;HTU21D;54120;53.504;49.426;2023-05-07T18:16:12;6.56;46.36
67192;HTU21D;54120;53.504;49.426;2023-05-07T18:21:44;6.41;48.55